Time;durP1;ratioP1;P1;durP2;ratioP2;P2;SDS_P1;SDS_P2;PMS_P1;PMS_P2;Temp;Humidity;BMP_temperature;BMP_pressure;BME280_temperature;BME280_humidity;BME280_pressure;Samples;Min_cycle;Max_cycle;Signal;HPM_P1;HPM_P2
2021/03/22 00:02:06;;;;;;;5.25;2.58;;;6.70;64.30;;;;;;5030129;28;20037;-67
2021/03/22 00:05:10;;;;;;;7.53;2.28;;;6.70;64.50;;;;;;5019740;28;20041;-66
2021/03/22 00:08:16;;;;;;;7.07;2.28;;;6.70;64.70;;;;;;5027872;28;20034;-65
2021/03/22 00:11:21;;;;;;;4.47;2.47;;;6.90;63.70;;;;;;5029929;28;20370;-67
2021/03/22 00:14:26;;;;;;;8.73;2.35;;;6.90;64.00;;;;;;5030364;28;20049;-67
2021/03/22 00:17:31;;;;;;;4.38;2.42;;;6.80;64.30;;;;;;5022944;28;20042;-67
2021/03/22 00:20:36;;;;;;;3.97;2.33;;;6.80;64.60;;;;;;5029945;28;20025;-67
2021/03/22 00:23:41;;;;;;;8.45;2.75;;;6.70;64.80;;;;;;5030094;28;20041;-68
2021/03/22 00:26:45;;;;;;;6.97;2.80;;;6.80;64.90;;;;;;5029183;28;20484;-65
2021/03/22 00:29:50;;;;;;;3.78;2.38;;;6.60;65.50;;;;;;5030005;28;20053;-66
2021/03/22 00:32:54;;;;;;;4.28;2.15;;;6.60;65.50;;;;;;5023730;28;20049;-68
2021/03/22 00:35:59;;;;;;;7.35;4.78;;;6.60;65.30;;;;;;5015837;28;20045;-68
2021/03/22 00:39:04;;;;;;;3.55;2.30;;;6.60;65.40;;;;;;5028612;28;20041;-64
2021/03/22 00:42:09;;;;;;;4.68;2.40;;;6.60;65.60;;;;;;5029855;28;20037;-66
2021/03/22 00:45:16;;;;;;;3.85;2.15;;;6.60;65.70;;;;;;5022879;28;20037;-66
2021/03/22 00:48:20;;;;;;;3.72;2.42;;;6.60;65.30;;;;;;5029702;28;20037;-66
2021/03/22 00:51:25;;;;;;;2.75;1.98;;;6.50;65.40;;;;;;5028813;28;20046;-67
2021/03/22 00:54:29;;;;;;;4.22;2.30;;;6.70;64.70;;;;;;5033020;28;20469;-65
2021/03/22 00:57:33;;;;;;;4.97;3.08;;;6.80;64.60;;;;;;5029737;28;20033;-67
2021/03/22 01:00:40;;;;;;;4.82;2.40;;;6.70;64.50;;;;;;5032609;28;20042;-67
2021/03/22 01:03:45;;;;;;;6.00;2.25;;;6.70;64.70;;;;;;5033602;28;20029;-66
2021/03/22 01:06:49;;;;;;;5.97;2.40;;;6.70;64.70;;;;;;5032020;28;20050;-66
2021/03/22 01:09:53;;;;;;;4.93;3.03;;;6.70;65.30;;;;;;5032948;28;20433;-68
2021/03/22 01:12:58;;;;;;;4.32;2.30;;;6.70;65.20;;;;;;5033361;28;20037;-66
2021/03/22 01:16:04;;;;;;;3.35;2.10;;;6.60;65.30;;;;;;5032300;28;20037;-67
2021/03/22 01:19:21;;;;;;;4.63;2.38;;;6.60;65.00;;;;;;5032815;28;20033;-67
2021/03/22 01:22:26;;;;;;;4.35;2.33;;;6.50;65.60;;;;;;5021161;28;20038;-66
2021/03/22 01:25:30;;;;;;;4.97;2.88;;;6.60;65.20;;;;;;5032352;28;20033;-68
2021/03/22 01:28:35;;;;;;;3.85;1.80;;;6.60;64.90;;;;;;5032512;28;20033;-67
2021/03/22 01:31:39;;;;;;;3.00;2.10;;;6.60;64.70;;;;;;5032761;28;20033;-69
2021/03/22 01:34:43;;;;;;;3.78;2.20;;;6.70;64.50;;;;;;5033029;28;20041;-67
2021/03/22 01:37:47;;;;;;;5.18;2.85;;;6.70;65.20;;;;;;5031678;28;20041;-66
2021/03/22 01:41:22;;;;;;;5.85;2.40;;;6.30;67.40;;;;;;5031905;28;20041;-67
2021/03/22 01:44:32;;;;;;;3.35;2.28;;;6.20;66.70;;;;;;5033017;28;20030;-65
2021/03/22 01:47:37;;;;;;;3.33;2.13;;;6.40;65.80;;;;;;5031489;28;20041;-67
2021/03/22 01:50:41;;;;;;;5.38;2.00;;;6.60;65.50;;;;;;5032645;28;20045;-67
2021/03/22 01:53:46;;;;;;;4.97;3.00;;;6.60;65.40;;;;;;5032585;28;20045;-68
2021/03/22 01:56:53;;;;;;;3.30;2.05;;;6.50;67.50;;;;;;5032056;28;20045;-66
2021/03/22 02:00:27;;;;;;;6.35;3.25;;;6.10;67.00;;;;;;5032423;28;20045;-66
2021/03/22 02:03:32;;;;;;;5.50;3.63;;;6.20;68.10;;;;;;5032129;28;20037;-66
2021/03/22 02:06:36;;;;;;;10.60;3.30;;;5.60;69.90;;;;;;5030690;28;20712;-68
2021/03/22 02:09:41;;;;;;;9.70;4.40;;;5.30;71.10;;;;;;5031834;28;20049;-67
2021/03/22 02:12:46;;;;;;;5.95;3.35;;;5.10;72.70;;;;;;5032164;28;20045;-67
2021/03/22 02:16:03;;;;;;;6.68;3.60;;;5.00;72.90;;;;;;5031508;28;20053;-67
2021/03/22 02:19:17;;;;;;;6.55;3.22;;;5.00;73.00;;;;;;5031902;28;20041;-67
2021/03/22 02:23:12;;;;;;;7.75;3.30;;;5.00;73.10;;;;;;5031438;28;20353;-68
2021/03/22 02:26:44;;;;;;;7.80;4.35;;;5.00;73.30;;;;;;5011732;28;20037;-68
2021/03/22 02:30:00;;;;;;;7.20;3.65;;;5.00;73.40;;;;;;5031046;28;20030;-64
2021/03/22 02:33:29;;;;;;;8.07;3.72;;;4.90;73.50;;;;;;5031873;28;20045;-66
2021/03/22 02:36:58;;;;;;;6.05;3.65;;;4.80;74.20;;;;;;5030579;28;20037;-68
2021/03/22 02:40:17;;;;;;;7.97;4.32;;;4.70;74.80;;;;;;5031441;28;20468;-65
2021/03/22 02:43:22;;;;;;;5.47;3.88;;;4.60;74.80;;;;;;5018408;28;20034;-67
2021/03/22 02:46:27;;;;;;;10.95;4.35;;;4.60;74.70;;;;;;5030631;28;20033;-65
2021/03/22 02:49:36;;;;;;;5.30;3.28;;;4.50;75.80;;;;;;5031234;28;20499;-66
2021/03/22 02:52:56;;;;;;;5.43;4.05;;;4.40;76.70;;;;;;5030224;28;20033;-67
2021/03/22 02:56:20;;;;;;;7.07;3.53;;;4.40;76.40;;;;;;5030521;28;20045;-67
2021/03/22 02:59:39;;;;;;;5.55;3.47;;;4.40;76.90;;;;;;5023617;28;20045;-68
2021/03/22 03:02:45;;;;;;;7.53;4.28;;;4.40;76.80;;;;;;5027223;28;20042;-68
2021/03/22 03:05:51;;;;;;;6.05;3.55;;;4.40;77.20;;;;;;5023048;28;20034;-67
2021/03/22 03:08:55;;;;;;;5.07;3.38;;;4.30;77.20;;;;;;5016222;28;20037;-69
2021/03/22 03:12:14;;;;;;;6.60;3.85;;;4.40;77.40;;;;;;5030482;28;20362;-66
2021/03/22 03:15:21;;;;;;;5.43;3.22;;;4.30;78.10;;;;;;5029436;28;20373;-66
2021/03/22 03:18:25;;;;;;;8.93;3.92;;;4.30;79.40;;;;;;5028925;28;20046;-67
2021/03/22 03:21:31;;;;;;;4.88;3.55;;;4.20;79.20;;;;;;5021086;28;20037;-66
2021/03/22 03:24:40;;;;;;;7.85;3.75;;;4.20;79.10;;;;;;5031168;28;20037;-67
2021/03/22 03:27:44;;;;;;;5.53;3.67;;;4.30;80.10;;;;;;5030250;28;20038;-68
2021/03/22 03:30:48;;;;;;;7.13;4.05;;;4.20;79.80;;;;;;5030384;28;20037;-66
2021/03/22 03:33:52;;;;;;;5.80;3.55;;;4.20;80.60;;;;;;5030577;28;20053;-67
2021/03/22 03:36:57;;;;;;;7.13;3.78;;;4.20;81.80;;;;;;5029083;28;20041;-67
2021/03/22 03:40:11;;;;;;;4.70;3.70;;;4.20;83.00;;;;;;5030342;28;20041;-65
2021/03/22 03:43:16;;;;;;;6.03;3.63;;;4.10;83.10;;;;;;5030758;28;20037;-68
2021/03/22 03:46:20;;;;;;;5.30;3.50;;;4.10;83.50;;;;;;5029671;28;20045;-67
2021/03/22 03:49:26;;;;;;;4.40;3.38;;;4.20;83.60;;;;;;5029763;28;20033;-66
2021/03/22 03:52:30;;;;;;;7.15;4.10;;;4.20;84.70;;;;;;5028894;28;20049;-67
2021/03/22 03:55:34;;;;;;;5.20;2.92;;;4.30;85.20;;;;;;5017790;28;20049;-67
2021/03/22 03:58:39;;;;;;;5.47;3.00;;;4.40;85.90;;;;;;5030192;28;20033;-67
2021/03/22 04:01:43;;;;;;;6.28;3.72;;;4.40;86.90;;;;;;5029821;28;20026;-66
2021/03/22 04:04:59;;;;;;;5.63;3.58;;;4.40;87.60;;;;;;5030694;28;20041;-66
2021/03/22 04:08:03;;;;;;;6.65;3.47;;;4.40;89.10;;;;;;5029923;28;20049;-68
2021/03/22 04:11:12;;;;;;;9.02;3.38;;;4.40;89.10;;;;;;5021240;28;20053;-66
2021/03/22 04:14:21;;;;;;;6.78;3.92;;;4.40;90.70;;;;;;5031081;28;20045;-67
2021/03/22 04:17:26;;;;;;;8.48;3.30;;;4.40;90.80;;;;;;5029782;28;20041;-67
2021/03/22 04:20:30;;;;;;;4.93;3.03;;;4.30;91.40;;;;;;5030305;28;20468;-66
2021/03/22 04:23:34;;;;;;;5.97;3.03;;;4.30;92.00;;;;;;5030135;28;20033;-67
2021/03/22 04:26:39;;;;;;;4.90;2.97;;;4.40;92.30;;;;;;5030255;28;20049;-67
2021/03/22 04:29:43;;;;;;;3.95;2.58;;;4.40;92.70;;;;;;5024219;28;20041;-68
2021/03/22 04:32:48;;;;;;;5.40;2.80;;;4.40;92.80;;;;;;5033770;28;20038;-67
2021/03/22 04:35:52;;;;;;;7.85;2.75;;;4.50;92.30;;;;;;5032765;28;20053;-66
2021/03/22 04:38:56;;;;;;;4.47;2.88;;;4.50;91.60;;;;;;5034254;28;20033;-67
2021/03/22 04:42:01;;;;;;;5.72;2.97;;;4.60;92.60;;;;;;5033958;28;20041;-67
2021/03/22 04:45:06;;;;;;;8.00;4.28;;;4.60;92.60;;;;;;5034154;28;20056;-67
2021/03/22 04:48:11;;;;;;;3.65;2.50;;;4.60;92.70;;;;;;5034122;28;20045;-67
2021/03/22 04:51:15;;;;;;;5.93;2.58;;;4.60;93.00;;;;;;5033315;28;20041;-65
2021/03/22 04:54:19;;;;;;;5.15;2.60;;;4.60;93.00;;;;;;5034270;28;20037;-68
2021/03/22 04:57:29;;;;;;;4.35;2.65;;;4.70;92.90;;;;;;5022645;28;20041;-66
2021/03/22 05:00:39;;;;;;;6.35;3.03;;;4.60;93.00;;;;;;5033983;28;20030;-65
2021/03/22 05:03:44;;;;;;;4.53;2.45;;;4.70;92.20;;;;;;5033459;28;20037;-66
2021/03/22 05:06:48;;;;;;;3.90;2.22;;;4.90;91.60;;;;;;5032006;28;20033;-66
2021/03/22 05:09:53;;;;;;;4.55;2.40;;;4.80;92.30;;;;;;5033529;28;20045;-66
2021/03/22 05:12:57;;;;;;;10.40;2.78;;;4.90;92.20;;;;;;5033479;28;20041;-66
2021/03/22 05:16:02;;;;;;;6.25;2.08;;;5.00;92.10;;;;;;5032613;28;20048;-66
2021/03/22 05:19:06;;;;;;;10.25;2.45;;;5.00;91.80;;;;;;5033590;28;20041;-66
2021/03/22 05:22:10;;;;;;;4.43;2.10;;;5.10;91.40;;;;;;5031619;28;20048;-66
2021/03/22 05:25:15;;;;;;;3.40;1.80;;;5.20;91.30;;;;;;5032957;28;20652;-68
2021/03/22 05:28:22;;;;;;;3.60;1.83;;;5.20;90.90;;;;;;5033170;28;20041;-68
2021/03/22 05:31:26;;;;;;;3.90;2.60;;;5.40;91.10;;;;;;5030449;28;20038;-69
2021/03/22 05:34:31;;;;;;;4.57;2.20;;;5.40;90.80;;;;;;5033389;28;20041;-66
2021/03/22 05:37:35;;;;;;;3.65;2.05;;;5.50;90.70;;;;;;5031665;28;20369;-65
2021/03/22 05:40:46;;;;;;;4.75;2.10;;;5.50;90.80;;;;;;5031834;28;20366;-67
2021/03/22 05:44:17;;;;;;;4.38;2.40;;;5.50;90.30;;;;;;5032438;28;20037;-67
2021/03/22 05:47:25;;;;;;;2.50;1.63;;;5.60;88.70;;;;;;5026307;28;20049;-66
2021/03/22 05:50:37;;;;;;;5.88;1.70;;;5.70;87.20;;;;;;5032698;28;20037;-67
2021/03/22 05:53:48;;;;;;;2.67;1.90;;;5.80;85.10;;;;;;5032571;28;20492;-68
2021/03/22 05:57:15;;;;;;;5.03;1.73;;;5.90;87.30;;;;;;5031570;28;20377;-67
2021/03/22 06:00:33;;;;;;;3.83;1.90;;;5.90;86.60;;;;;;5031559;28;20038;-67
2021/03/22 06:03:46;;;;;;;7.32;1.50;;;6.50;87.20;;;;;;5031035;28;20041;-66
2021/03/22 06:06:51;;;;;;;3.75;1.88;;;8.40;81.00;;;;;;5030629;28;20045;-66
2021/03/22 06:10:01;;;;;;;3.92;1.45;;;8.60;78.60;;;;;;5030288;28;20045;-67
2021/03/22 06:13:06;;;;;;;2.47;1.30;;;11.50;75.30;;;;;;5030809;28;20037;-67
2021/03/22 06:16:25;;;;;;;3.38;1.65;;;13.00;70.00;;;;;;5029874;28;20044;-67
2021/03/22 06:19:33;;;;;;;5.57;1.70;;;13.90;67.20;;;;;;5031381;28;20049;-67
2021/03/22 06:22:37;;;;;;;3.47;1.52;;;14.70;66.50;;;;;;5026944;28;20045;-65
2021/03/22 06:25:41;;;;;;;1.58;1.10;;;15.60;63.50;;;;;;5028949;28;20400;-66
2021/03/22 06:28:47;;;;;;;3.30;1.73;;;17.00;59.30;;;;;;5028353;28;20530;-67
2021/03/22 06:31:59;;;;;;;2.35;1.60;;;17.20;59.10;;;;;;5022545;28;20048;-65
2021/03/22 06:35:13;;;;;;;1.75;1.25;;;17.70;57.30;;;;;;5027385;28;20056;-68
2021/03/22 06:38:17;;;;;;;3.00;1.13;;;18.10;55.50;;;;;;5030036;28;20044;-64
2021/03/22 06:41:30;;;;;;;2.97;1.30;;;18.20;53.10;;;;;;5026278;28;20045;-67
2021/03/22 06:44:35;;;;;;;2.78;1.73;;;18.10;54.70;;;;;;5030649;28;20040;-67
2021/03/22 06:47:39;;;;;;;3.25;1.13;;;18.90;54.20;;;;;;5029829;28;20060;-68
2021/03/22 06:50:45;;;;;;;6.68;1.83;;;19.10;52.70;;;;;;5027592;28;20044;-67
2021/03/22 06:53:59;;;;;;;3.55;1.50;;;19.20;52.90;;;;;;5026393;28;20040;-67
2021/03/22 06:57:19;;;;;;;2.08;1.17;;;17.80;52.80;;;;;;5026601;28;20045;-68
2021/03/22 07:00:30;;;;;;;3.45;1.55;;;17.60;52.50;;;;;;5025187;28;20048;-67
2021/03/22 07:03:34;;;;;;;4.03;1.10;;;16.30;51.10;;;;;;5028406;28;20044;-67
2021/03/22 07:06:39;;;;;;;1.63;1.05;;;16.70;51.90;;;;;;5028387;28;20388;-68
2021/03/22 07:09:49;;;;;;;7.82;1.50;;;15.90;53.20;;;;;;5029365;28;20040;-67
2021/03/22 07:13:07;;;;;;;2.97;1.33;;;15.20;54.40;;;;;;5027574;28;20032;-67
2021/03/22 07:16:18;;;;;;;3.38;1.20;;;15.00;55.90;;;;;;5027439;28;20037;-68
2021/03/22 07:19:23;;;;;;;1.02;0.93;;;16.00;52.80;;;;;;5029772;28;20045;-64
2021/03/22 07:22:38;;;;;;;3.38;1.00;;;17.30;49.70;;;;;;5024512;28;20045;-66
2021/03/22 07:25:50;;;;;;;5.93;1.10;;;19.60;48.40;;;;;;5025795;28;20042;-65
2021/03/22 07:29:21;;;;;;;;;;;20.90;46.80;;;;;;5027023;28;20629;-68
2021/03/22 07:32:37;;;;;;;6.20;1.50;;;19.00;46.40;;;;;;5024871;28;19916;-66
2021/03/22 07:36:04;;;;;;;1.42;0.80;;;17.70;49.60;;;;;;5026553;28;20044;-67
2021/03/22 07:39:38;;;;;;;1.10;0.77;;;16.90;47.80;;;;;;5028784;28;20048;-68
2021/03/22 07:43:07;;;;;;;2.15;0.90;;;17.60;47.40;;;;;;5027358;28;20715;-67
2021/03/22 07:46:53;;;;;;;1.20;0.90;;;19.70;46.80;;;;;;5022499;28;20040;-68
2021/03/22 07:50:03;;;;;;;1.85;0.95;;;20.30;44.30;;;;;;5028583;28;20053;-67
2021/03/22 07:53:28;;;;;;;2.58;0.90;;;20.50;43.50;;;;;;5029681;28;20048;-66
2021/03/22 07:56:38;;;;;;;3.17;1.27;;;19.80;44.80;;;;;;5027272;28;20519;-67
2021/03/22 08:00:07;;;;;;;2.13;0.90;;;20.00;44.50;;;;;;5029578;28;20041;-67
2021/03/22 08:03:25;;;;;;;2.53;0.80;;;19.30;44.20;;;;;;5020186;28;20061;-67
2021/03/22 08:07:03;;;;;;;1.35;0.88;;;18.20;41.80;;;;;;5032427;28;20391;-68
2021/03/22 08:10:31;;;;;;;3.05;1.20;;;16.60;46.30;;;;;;5029872;28;20036;-67
2021/03/22 08:13:51;;;;;;;2.10;0.75;;;16.10;46.00;;;;;;5021791;28;20400;-68
2021/03/22 08:17:11;;;;;;;1.20;0.70;;;15.30;46.60;;;;;;5031820;28;20534;-67
2021/03/22 08:20:22;;;;;;;3.05;1.05;;;15.00;47.30;;;;;;5023448;28;20360;-68
2021/03/22 08:23:36;;;;;;;1.33;1.02;;;17.20;44.90;;;;;;5033260;28;20048;-67
2021/03/22 08:26:59;;;;;;;2.05;1.20;;;17.70;43.80;;;;;;5013123;28;20040;-69
2021/03/22 08:30:29;;;;;;;1.27;0.95;;;16.90;45.60;;;;;;5035560;28;20040;-68
2021/03/22 08:33:44;;;;;;;1.52;0.70;;;16.10;47.40;;;;;;5033578;28;20045;-65
2021/03/22 08:37:10;;;;;;;2.95;0.90;;;19.70;42.80;;;;;;5031397;28;20500;-66
2021/03/22 08:40:37;;;;;;;0.88;0.80;;;22.20;41.80;;;;;;5033482;28;20052;-68
2021/03/22 08:43:59;;;;;;;2.90;1.00;;;24.50;39.30;;;;;;5025159;28;20065;-67
2021/03/22 08:47:42;;;;;;;1.40;0.77;;;21.90;39.00;;;;;;5023760;28;20403;-68
2021/03/22 08:50:48;;;;;;;2.88;0.80;;;24.00;39.00;;;;;;5020165;28;20404;-67
2021/03/22 08:53:54;;;;;;;0.93;0.88;;;25.20;37.00;;;;;;5019327;28;20041;-67
2021/03/22 08:57:15;;;;;;;1.35;1.05;;;22.50;37.00;;;;;;5031878;28;20488;-67
2021/03/22 09:00:33;;;;;;;1.27;0.95;;;19.20;38.80;;;;;;5008336;28;20128;-67
2021/03/22 09:03:43;;;;;;;1.98;1.08;;;19.80;39.70;;;;;;5007875;28;20048;-65
2021/03/22 09:07:12;;;;;;;1.50;1.08;;;19.80;39.40;;;;;;5009655;28;20049;-67
2021/03/22 09:10:29;;;;;;;1.98;1.00;;;20.50;39.70;;;;;;5014968;28;20037;-67
2021/03/22 09:13:37;;;;;;;1.05;0.75;;;24.30;36.60;;;;;;5020040;28;20494;-65
2021/03/22 09:16:47;;;;;;;1.98;0.90;;;27.90;35.80;;;;;;5015744;28;20948;-67
2021/03/22 09:20:37;;;;;;;2.40;0.80;;;27.20;33.50;;;;;;5023695;28;20052;-67
2021/03/22 09:23:42;;;;;;;1.38;0.75;;;27.70;34.30;;;;;;5020976;28;20044;-66
2021/03/22 09:26:58;;;;;;;1.60;1.10;;;24.90;33.10;;;;;;5021528;28;20052;-67
2021/03/22 09:30:06;;;;;;;1.23;0.80;;;25.30;34.80;;;;;;5021512;28;20044;-65
2021/03/22 09:33:10;;;;;;;2.15;0.98;;;23.50;34.40;;;;;;5022182;28;21431;-66
2021/03/22 09:36:27;;;;;;;1.90;1.30;;;20.40;36.30;;;;;;5018815;28;20683;-67
2021/03/22 09:39:33;;;;;;;1.92;1.08;;;19.10;39.00;;;;;;5029447;28;20044;-66
2021/03/22 09:42:44;;;;;;;1.02;0.80;;;21.50;38.60;;;;;;5014668;28;20052;-67
2021/03/22 09:45:52;;;;;;;1.67;1.15;;;22.90;37.00;;;;;;5011386;28;20056;-67
2021/03/22 09:49:15;;;;;;;1.55;0.90;;;25.10;35.70;;;;;;5022545;28;20820;-66
2021/03/22 09:52:27;;;;;;;2.67;1.10;;;26.50;34.20;;;;;;5017794;28;20052;-69
2021/03/22 09:55:38;;;;;;;1.60;0.80;;;25.10;33.60;;;;;;5021236;28;20710;-67
2021/03/22 09:58:45;;;;;;;1.58;0.93;;;25.40;33.00;;;;;;5020809;28;20392;-67
2021/03/22 10:01:50;;;;;;;2.38;1.17;;;24.60;33.00;;;;;;5016068;28;20055;-66
2021/03/22 10:05:09;;;;;;;2.22;1.10;;;23.70;34.50;;;;;;5020815;28;20530;-67
2021/03/22 10:08:35;;;;;;;2.15;1.30;;;20.30;35.80;;;;;;5019796;28;20040;-67
2021/03/22 10:11:44;;;;;;;2.47;1.35;;;21.20;37.30;;;;;;5017602;28;20507;-65
2021/03/22 10:15:25;;;;;;;2.15;1.35;;;20.40;36.70;;;;;;5022240;28;20052;-67
2021/03/22 10:18:38;;;;;;;2.45;1.40;;;20.00;38.10;;;;;;5020958;28;20056;-67
2021/03/22 10:22:13;;;;;;;1.88;1.20;;;20.90;37.40;;;;;;5013246;28;20056;-67
2021/03/22 10:25:25;;;;;;;2.13;1.05;;;23.40;35.60;;;;;;5016975;28;20045;-68
2021/03/22 10:28:29;;;;;;;1.33;1.02;;;24.50;34.00;;;;;;5022377;28;20949;-67
2021/03/22 10:31:34;;;;;;;2.72;1.27;;;23.30;35.60;;;;;;5021071;28;20052;-67
2021/03/22 10:34:49;;;;;;;2.90;1.20;;;23.10;35.50;;;;;;5023444;28;20388;-65
2021/03/22 10:37:57;;;;;;;1.77;1.30;;;24.80;34.60;;;;;;5021287;28;20060;-69
2021/03/22 10:41:10;;;;;;;1.30;0.88;;;26.70;33.60;;;;;;5020072;28;21191;-68
2021/03/22 10:44:38;;;;;;;1.02;0.77;;;30.60;32.70;;;;;;5024795;28;20491;-68
2021/03/22 10:48:02;;;;;;;2.28;1.30;;;31.10;31.20;;;;;;5018430;28;20046;-67
2021/03/22 10:51:13;;;;;;;3.28;1.40;;;29.70;31.00;;;;;;5025341;28;20049;-66
2021/03/22 10:54:22;;;;;;;2.53;1.40;;;22.40;35.10;;;;;;5023798;28;20044;-68
2021/03/22 10:57:37;;;;;;;2.47;1.60;;;21.90;35.80;;;;;;5023763;28;20044;-68
2021/03/22 11:00:46;;;;;;;3.22;1.63;;;22.40;35.70;;;;;;5026835;28;20040;-68
2021/03/22 11:03:50;;;;;;;2.05;1.60;;;22.20;37.00;;;;;;5022605;28;20053;-67
2021/03/22 11:06:56;;;;;;;3.58;1.38;;;20.40;37.60;;;;;;5024553;28;20044;-68
2021/03/22 11:10:18;;;;;;;7.63;1.40;;;21.10;35.90;;;;;;5025176;28;20032;-68
2021/03/22 11:13:27;;;;;;;2.05;1.45;;;23.10;34.90;;;;;;5022642;28;20040;-67
2021/03/22 11:16:36;;;;;;;3.53;1.40;;;25.20;33.00;;;;;;5028388;28;20480;-68
2021/03/22 11:19:46;;;;;;;2.72;1.60;;;26.50;32.90;;;;;;5029631;28;20049;-68
2021/03/22 11:22:53;;;;;;;1.60;1.38;;;25.00;32.70;;;;;;5028757;28;20139;-69
2021/03/22 11:26:22;;;;;;;1.90;1.35;;;26.70;33.50;;;;;;5029531;28;20542;-68
2021/03/22 11:29:27;;;;;;;5.15;1.70;;;26.80;31.10;;;;;;5022931;28;20494;-67
2021/03/22 11:32:33;;;;;;;1.88;1.42;;;24.80;32.60;;;;;;5021315;28;20819;-68
2021/03/22 11:35:38;;;;;;;1.80;1.60;;;22.90;34.50;;;;;;5022340;28;20048;-68
2021/03/22 11:39:07;;;;;;;2.20;1.20;;;24.80;32.50;;;;;;5022337;28;20040;-69
2021/03/22 11:42:20;;;;;;;2.60;1.73;;;27.40;32.80;;;;;;5026888;28;20048;-67
2021/03/22 11:45:45;;;;;;;4.53;1.67;;;27.70;31.70;;;;;;5024150;28;20060;-67
2021/03/22 11:48:52;;;;;;;2.85;1.60;;;25.50;32.50;;;;;;5022432;28;20037;-67
2021/03/22 11:52:01;;;;;;;7.22;2.67;;;23.90;33.20;;;;;;5018031;28;20053;-65
2021/03/22 11:55:27;;;;;;;3.40;1.83;;;22.40;34.00;;;;;;5024358;28;20044;-67
2021/03/22 11:58:37;;;;;;;2.53;1.80;;;21.80;35.50;;;;;;5019415;28;20041;-66
2021/03/22 12:01:41;;;;;;;3.65;2.42;;;21.90;35.20;;;;;;5022183;28;20396;-67
2021/03/22 12:05:07;;;;;;;3.40;1.50;;;22.70;34.50;;;;;;5018892;28;20821;-68
2021/03/22 12:08:34;;;;;;;2.05;1.60;;;23.80;34.20;;;;;;5020849;28;20061;-68
2021/03/22 12:11:40;;;;;;;2.63;1.67;;;23.60;34.10;;;;;;5024193;28;20041;-67
2021/03/22 12:14:45;;;;;;;4.57;1.92;;;23.80;33.00;;;;;;5020509;28;20060;-67
2021/03/22 12:17:55;;;;;;;4.50;2.05;;;24.80;33.80;;;;;;5022292;28;20049;-67
2021/03/22 12:21:02;;;;;;;2.28;1.15;;;27.10;32.00;;;;;;5023644;28;20053;-68
2021/03/22 12:24:10;;;;;;;5.00;1.63;;;29.20;32.10;;;;;;5024249;28;20044;-67
2021/03/22 12:27:19;;;;;;;1.90;1.30;;;29.50;30.40;;;;;;5025150;28;20056;-67
2021/03/22 12:30:26;;;;;;;2.35;1.70;;;26.50;32.30;;;;;;5023081;28;20052;-67
2021/03/22 12:33:31;;;;;;;1.98;1.20;;;25.80;33.20;;;;;;5022302;28;20048;-67
2021/03/22 12:36:36;;;;;;;2.00;1.58;;;26.20;31.70;;;;;;5019265;28;20073;-67
2021/03/22 12:39:41;;;;;;;1.70;1.17;;;27.70;32.20;;;;;;5020827;28;20849;-68
2021/03/22 12:42:47;;;;;;;4.32;1.50;;;29.20;32.30;;;;;;5024011;28;20078;-68
2021/03/22 12:45:51;;;;;;;3.30;1.23;;;28.30;30.60;;;;;;5024219;28;20051;-67
2021/03/22 12:48:56;;;;;;;2.67;1.60;;;25.90;32.70;;;;;;5025808;28;20064;-68
2021/03/22 12:52:00;;;;;;;2.30;1.38;;;24.90;31.60;;;;;;5027056;28;20048;-66
2021/03/22 12:55:05;;;;;;;2.50;1.50;;;23.00;33.60;;;;;;5027128;28;20037;-67
2021/03/22 12:58:22;;;;;;;2.05;1.20;;;22.70;33.40;;;;;;5025275;28;20531;-67
2021/03/22 13:01:27;;;;;;;3.25;1.75;;;23.40;33.40;;;;;;5024645;28;20040;-67
2021/03/22 13:04:32;;;;;;;2.08;1.20;;;24.90;31.90;;;;;;5026162;28;20099;-67
2021/03/22 13:07:35;;;;;;;2.65;1.20;;;25.10;31.80;;;;;;5022678;28;20036;-68
2021/03/22 13:10:39;;;;;;;2.60;1.45;;;26.40;30.50;;;;;;5026265;28;20041;-67
2021/03/22 13:13:43;;;;;;;1.75;1.10;;;27.30;31.50;;;;;;5027859;28;20044;-67
2021/03/22 13:16:48;;;;;;;2.22;1.25;;;24.30;32.30;;;;;;5024168;28;20388;-67
2021/03/22 13:19:54;;;;;;;3.13;1.33;;;22.80;33.60;;;;;;5027280;28;20060;-65
2021/03/22 13:22:58;;;;;;;1.75;1.10;;;22.40;33.40;;;;;;5024751;28;20044;-66
2021/03/22 13:26:04;;;;;;;3.25;1.50;;;20.30;34.30;;;;;;5023524;28;20044;-65
2021/03/22 13:29:09;;;;;;;2.88;1.30;;;18.00;36.50;;;;;;5019909;28;20036;-67
2021/03/22 13:32:13;;;;;;;2.70;1.55;;;17.70;37.60;;;;;;5027367;28;20067;-67
2021/03/22 13:35:27;;;;;;;2.00;1.30;;;17.00;38.10;;;;;;5022083;28;20500;-67
2021/03/22 13:38:33;;;;;;;2.38;1.42;;;17.80;37.50;;;;;;5023497;28;20050;-68
2021/03/22 13:41:43;;;;;;;3.10;1.35;;;19.00;36.80;;;;;;5021790;28;20048;-67
2021/03/22 13:44:48;;;;;;;2.72;1.20;;;19.30;36.70;;;;;;5022396;28;20056;-68
2021/03/22 13:47:53;;;;;;;4.75;1.50;;;19.70;36.20;;;;;;5019131;28;20040;-66
2021/03/22 13:50:59;;;;;;;2.55;1.40;;;21.00;35.90;;;;;;5025973;28;20049;-69
2021/03/22 13:54:05;;;;;;;2.17;1.13;;;21.50;34.90;;;;;;5029566;28;20072;-68
2021/03/22 13:57:10;;;;;;;2.25;1.48;;;21.80;34.30;;;;;;5028655;28;20052;-67
2021/03/22 14:00:15;;;;;;;4.07;2.03;;;19.70;34.10;;;;;;5029483;28;20052;-68
2021/03/22 14:03:22;;;;;;;2.22;1.10;;;18.50;36.20;;;;;;5021770;28;20542;-67
2021/03/22 14:06:26;;;;;;;1.30;0.95;;;19.70;36.80;;;;;;5029294;28;20400;-66
2021/03/22 14:09:31;;;;;;;2.47;1.10;;;19.10;35.30;;;;;;5030681;28;20044;-67
2021/03/22 14:12:35;;;;;;;2.13;0.82;;;20.10;35.10;;;;;;5013044;28;20048;-67
2021/03/22 14:15:41;;;;;;;2.65;2.28;;;20.90;33.50;;;;;;5029791;28;20053;-67
2021/03/22 14:18:47;;;;;;;2.38;1.10;;;22.20;32.30;;;;;;5026462;28;20044;-68
2021/03/22 14:21:52;;;;;;;3.10;1.00;;;23.50;32.50;;;;;;5030665;28;20056;-68
2021/03/22 14:24:57;;;;;;;1.63;1.00;;;23.40;32.30;;;;;;5032596;28;20475;-66
2021/03/22 14:28:02;;;;;;;3.42;0.90;;;22.10;32.70;;;;;;5031998;28;20052;-66
2021/03/22 14:31:06;;;;;;;2.10;1.08;;;21.30;33.10;;;;;;5030924;28;20044;-67
2021/03/22 14:34:11;;;;;;;1.77;0.88;;;22.10;33.40;;;;;;5030295;28;20045;-66
2021/03/22 14:37:15;;;;;;;2.33;1.10;;;22.50;33.40;;;;;;5034228;28;20377;-67
2021/03/22 14:40:20;;;;;;;1.75;0.95;;;22.50;33.60;;;;;;5030430;28;20393;-68
2021/03/22 14:43:25;;;;;;;0.68;0.65;;;21.80;32.70;;;;;;5028923;28;20040;-67
2021/03/22 14:46:29;;;;;;;2.63;1.10;;;21.80;33.50;;;;;;5030259;28;20068;-67
2021/03/22 14:49:34;;;;;;;5.82;1.40;;;20.90;34.30;;;;;;5033124;28;20491;-67
2021/03/22 14:52:38;;;;;;;4.45;1.85;;;18.60;33.80;;;;;;5025153;28;20064;-66
2021/03/22 14:55:43;;;;;;;3.65;1.15;;;17.80;36.60;;;;;;5027716;28;20852;-66
2021/03/22 14:58:47;;;;;;;4.05;1.92;;;17.20;36.20;;;;;;5027360;28;20045;-67
2021/03/22 15:01:52;;;;;;;4.40;1.17;;;17.20;36.90;;;;;;5031102;28;20049;-66
2021/03/22 15:04:56;;;;;;;1.33;0.90;;;16.70;36.70;;;;;;5032702;28;20040;-68
2021/03/22 15:08:01;;;;;;;2.03;1.30;;;16.70;37.20;;;;;;5027650;28;20047;-68
2021/03/22 15:11:06;;;;;;;3.22;1.50;;;16.60;36.60;;;;;;5030236;28;20116;-68
2021/03/22 15:14:11;;;;;;;2.90;0.95;;;16.40;37.20;;;;;;5028083;28;20041;-65
2021/03/22 15:17:15;;;;;;;3.45;1.52;;;15.70;38.30;;;;;;5024619;28;20040;-68
2021/03/22 15:20:22;;;;;;;2.45;1.02;;;15.20;38.90;;;;;;5023324;28;20362;-68
2021/03/22 15:23:29;;;;;;;2.92;1.40;;;15.20;38.10;;;;;;5023900;28;20043;-65
2021/03/22 15:26:35;;;;;;;3.08;1.25;;;15.30;38.60;;;;;;5027849;28;20040;-67
2021/03/22 15:29:39;;;;;;;2.42;1.33;;;14.70;39.20;;;;;;5030797;28;20056;-68
2021/03/22 15:32:43;;;;;;;6.47;2.70;;;15.10;39.30;;;;;;5026140;28;20056;-68
2021/03/22 15:35:57;;;;;;;6.95;1.77;;;15.00;39.60;;;;;;5022690;28;20060;-67
2021/03/22 15:39:03;;;;;;;2.00;1.10;;;14.50;39.10;;;;;;5025118;28;20047;-68
2021/03/22 15:42:11;;;;;;;2.33;1.08;;;14.60;38.70;;;;;;5020401;28;20052;-69
2021/03/22 15:45:32;;;;;;;2.67;1.20;;;14.20;39.10;;;;;;5023498;28;20053;-68
2021/03/22 15:48:38;;;;;;;2.50;1.23;;;14.30;39.70;;;;;;5024323;28;20056;-68
2021/03/22 15:51:42;;;;;;;2.88;1.30;;;13.60;39.80;;;;;;5021821;28;20064;-68
2021/03/22 15:54:46;;;;;;;3.63;1.52;;;13.60;39.80;;;;;;5025546;28;20049;-68
2021/03/22 15:57:52;;;;;;;1.55;0.90;;;13.80;40.30;;;;;;5026875;28;20392;-67
2021/03/22 16:00:56;;;;;;;2.70;1.23;;;14.00;39.80;;;;;;5027840;28;20487;-67
2021/03/22 16:04:00;;;;;;;4.18;1.50;;;13.80;39.30;;;;;;5013292;28;20049;-69
2021/03/22 16:07:05;;;;;;;1.60;0.90;;;13.30;39.50;;;;;;5012675;28;20041;-67
2021/03/22 16:10:10;;;;;;;4.03;1.42;;;12.80;40.20;;;;;;5027203;28;20392;-68
2021/03/22 16:13:22;;;;;;;3.53;1.17;;;12.60;41.50;;;;;;5022249;28;20040;-68
2021/03/22 16:16:27;;;;;;;;;;;12.80;40.70;;;;;;5029337;28;20048;-67
2021/03/22 16:19:31;;;;;;;8.18;1.55;;;12.90;40.90;;;;;;5028865;28;19920;-67
2021/03/22 16:22:35;;;;;;;3.10;1.95;;;12.70;39.50;;;;;;5027936;28;20037;-67
2021/03/22 16:25:40;;;;;;;5.88;4.28;;;12.70;40.30;;;;;;5022748;28;20068;-68
2021/03/22 16:28:46;;;;;;;6.03;3.33;;;12.60;41.10;;;;;;5021373;28;20494;-67
2021/03/22 16:31:51;;;;;;;1.35;0.98;;;12.60;40.60;;;;;;5032525;28;20048;-67
2021/03/22 16:34:55;;;;;;;2.50;1.10;;;12.10;40.40;;;;;;5030899;28;20036;-67